Time;durP1;ratioP1;P1;durP2;ratioP2;P2;SDS_P1;SDS_P2;PMS_P1;PMS_P2;Temp;Humidity;BMP_temperature;BMP_pressure;BME280_temperature;BME280_humidity;BME280_pressure;Samples;Min_cycle;Max_cycle;Signal;HPM_P1;HPM_P2
2022/12/20 00:00:49;;;;;;;5.57;3.20;;;;;;;9.32;92.80;101299.72;5031892;28;20029;-77
2022/12/20 00:03:14;;;;;;;7.95;3.70;;;;;;;9.32;93.04;101310.22;5032550;28;20029;-77
2022/12/20 00:05:41;;;;;;;5.53;3.30;;;;;;;9.39;92.34;101310.69;5031026;28;20033;-77
2022/12/20 00:08:08;;;;;;;8.23;3.95;;;;;;;9.42;92.27;101321.00;5009913;28;20026;-77
2022/12/20 00:10:41;;;;;;;6.32;3.53;;;;;;;9.40;92.65;101312.38;5015166;28;20021;-77
2022/12/20 00:13:07;;;;;;;7.97;4.10;;;;;;;9.39;92.61;101311.53;5025613;28;20085;-77
2022/12/20 00:15:33;;;;;;;9.80;4.28;;;;;;;9.43;92.14;101313.03;5014847;28;20040;-77
2022/12/20 00:17:59;;;;;;;7.82;4.15;;;;;;;9.50;91.61;101305.59;5031954;28;20474;-77
2022/12/20 00:20:25;;;;;;;7.47;3.78;;;;;;;9.54;91.59;101308.88;5031485;28;20461;-77
2022/12/20 00:22:59;;;;;;;6.53;3.63;;;;;;;9.55;92.00;101306.16;5013760;28;20029;-77
2022/12/20 00:25:27;;;;;;;8.35;3.92;;;;;;;9.57;91.85;101308.69;5031246;28;20026;-77
2022/12/20 00:27:52;;;;;;;8.18;4.03;;;;;;;9.60;91.13;101298.00;5026627;28;20029;-77
2022/12/20 00:30:24;;;;;;;7.43;4.30;;;;;;;9.63;91.11;101292.56;5013762;28;20460;-77
2022/12/20 00:32:49;;;;;;;9.88;4.65;;;;;;;9.63;91.22;101288.16;5031098;28;20025;-77
2022/12/20 00:35:15;;;;;;;8.15;4.22;;;;;;;9.67;91.15;101284.41;5030433;28;20033;-76
2022/12/20 00:37:41;;;;;;;6.80;3.90;;;;;;;9.70;90.72;101284.19;5031232;28;20028;-77
2022/12/20 00:40:07;;;;;;;8.60;4.25;;;;;;;9.71;90.75;101285.03;5031246;28;20444;-77
2022/12/20 00:42:32;;;;;;;10.75;3.92;;;;;;;9.77;90.29;101273.28;5027084;28;20474;-76
2022/12/20 00:44:58;;;;;;;8.88;4.05;;;;;;;9.77;90.49;101268.88;5016298;28;20056;-77
2022/12/20 00:47:23;;;;;;;10.60;4.20;;;;;;;9.82;90.25;101266.81;5030960;28;20401;-77
2022/12/20 00:49:49;;;;;;;8.20;3.83;;;;;;;9.82;90.14;101261.53;5029556;28;20030;-77
2022/12/20 00:52:15;;;;;;;7.85;3.90;;;;;;;9.89;89.54;101269.88;5030624;28;20112;-77
2022/12/20 00:54:40;;;;;;;7.57;3.70;;;;;;;9.90;89.94;101275.03;5030398;28;20474;-78
2022/12/20 00:57:05;;;;;;;7.10;3.53;;;;;;;9.93;89.63;101272.22;5030902;28;20078;-77
2022/12/20 00:59:32;;;;;;;6.63;3.53;;;;;;;9.95;90.45;101269.47;5027817;28;20119;-77
2022/12/20 01:01:58;;;;;;;7.55;3.08;;;;;;;9.95;90.52;101272.94;5025706;28;20071;-77
2022/12/20 01:04:23;;;;;;;5.95;3.00;;;;;;;10.00;91.04;101268.22;5029684;28;20120;-77
2022/12/20 01:06:48;;;;;;;5.60;2.90;;;;;;;9.94;93.49;101266.00;5030551;28;20025;-77
2022/12/20 01:09:21;;;;;;;5.03;3.20;;;;;;;9.93;93.97;101269.56;5010946;28;20028;-77
2022/12/20 01:11:47;;;;;;;5.45;3.00;;;;;;;9.84;95.78;101283.31;5029867;28;20048;-78
2022/12/20 01:14:14;;;;;;;4.63;2.97;;;;;;;9.81;96.50;101287.94;5029842;28;20037;-77
2022/12/20 01:16:42;;;;;;;5.18;2.80;;;;;;;9.74;96.70;101284.84;5022893;28;20433;-78
2022/12/20 01:19:10;;;;;;;5.13;2.83;;;;;;;9.74;96.97;101284.84;5008859;28;20557;-78
2022/12/20 01:21:35;;;;;;;3.08;2.70;;;;;;;9.73;98.19;101277.91;5008158;28;20548;-77
2022/12/20 01:24:01;;;;;;;4.05;2.90;;;;;;;9.66;100.00;101264.31;5011776;28;20037;-77
2022/12/20 01:26:28;;;;;;;5.88;3.00;;;;;;;9.60;100.00;101282.22;5028941;28;20031;-78
2022/12/20 01:28:56;;;;;;;5.97;3.13;;;;;;;9.55;100.00;101279.06;5029660;28;20026;-77
2022/12/20 01:31:22;;;;;;;4.72;2.97;;;;;;;9.52;100.00;101289.75;4935644;28;1654369;-77
2022/12/20 01:33:49;;;;;;;7.05;3.30;;;;;;;9.46;100.00;101283.09;5003877;28;20088;-77
2022/12/20 01:36:23;;;;;;;6.57;3.42;;;;;;;9.39;100.00;101284.44;5003181;28;20037;-77
2022/12/20 01:38:50;;;;;;;6.68;3.40;;;;;;;9.36;100.00;101274.13;4992067;28;20044;-77
2022/12/20 01:41:17;;;;;;;4.78;3.47;;;;;;;9.33;100.00;101263.81;5018449;28;20026;-77
2022/12/20 01:44:20;;;;;;;8.07;3.83;;;;;;;9.31;100.00;101263.91;5011096;28;20371;-77
2022/12/20 01:46:47;;;;;;;5.20;3.15;;;;;;;9.27;100.00;101262.41;4959017;28;20403;-77
2022/12/20 01:49:44;;;;;;;5.70;3.60;;;;;;;9.27;100.00;101258.94;5006964;28;20509;-78
2022/12/20 01:52:29;;;;;;;5.50;3.70;;;;;;;9.24;100.00;101249.47;4996218;28;20042;-77
2022/12/20 01:55:09;;;;;;;5.47;3.70;;;;;;;9.21;100.00;101243.56;4992257;28;20058;-77
2022/12/20 01:57:44;;;;;;;4.68;3.83;;;;;;;9.16;100.00;101232.47;5007228;28;20417;-77
2022/12/20 02:00:10;;;;;;;6.90;3.90;;;;;;;9.15;100.00;101234.25;5010162;28;20057;-78
2022/12/20 02:02:36;;;;;;;6.97;3.60;;;;;;;9.14;100.00;101231.72;5009747;28;20029;-78
2022/12/20 02:05:01;;;;;;;7.40;4.03;;;;;;;9.12;100.00;101237.06;5009902;28;20022;-78
2022/12/20 02:07:31;;;;;;;6.05;3.78;;;;;;;9.10;100.00;101245.06;5004113;28;20138;-78
2022/12/20 02:09:59;;;;;;;7.50;4.00;;;;;;;9.10;100.00;101246.84;4991181;28;20030;-77
2022/12/20 02:12:29;;;;;;;7.95;4.07;;;;;;;9.09;100.00;101234.66;4988022;28;20119;-77
2022/12/20 02:15:08;;;;;;;11.80;5.03;;;;;;;9.10;100.00;101223.22;4989637;28;20499;-77
2022/12/20 02:17:49;;;;;;;12.23;5.05;;;;;;;9.10;100.00;101210.09;4990575;28;20018;-77
2022/12/20 02:20:37;;;;;;;8.93;4.50;;;;;;;9.11;100.00;101209.13;5004960;28;20403;-78
2022/12/20 02:23:23;;;;;;;8.23;4.05;;;;;;;9.09;100.00;101192.66;5005615;28;20022;-78
2022/12/20 02:26:01;;;;;;;10.32;4.18;;;;;;;9.08;100.00;101201.47;4997752;28;20036;-78
2022/12/20 02:28:52;;;;;;;5.95;4.03;;;;;;;9.06;100.00;101213.84;5008929;28;20489;-78
2022/12/20 02:31:24;;;;;;;8.00;3.67;;;;;;;9.03;100.00;101198.28;5021418;28;20045;-78
2022/12/20 02:33:51;;;;;;;4.40;3.33;;;;;;;9.00;100.00;101208.97;5028387;28;20045;-78
2022/12/20 02:36:17;;;;;;;4.65;3.05;;;;;;;9.02;100.00;101200.06;5029691;28;20022;-78
2022/12/20 02:38:43;;;;;;;7.43;3.17;;;;;;;9.03;100.00;101190.41;5028855;28;20138;-78
2022/12/20 02:41:46;;;;;;;10.13;3.10;;;;;;;9.03;100.00;101200.91;5028619;28;20021;-78
2022/12/20 02:47:35;;;;;;;4.32;2.88;;;;;;;9.02;100.00;101193.97;5028359;28;20527;-78
2022/12/20 02:50:03;;;;;;;4.78;2.65;;;;;;;9.00;100.00;101193.22;5024806;28;20068;-78
2022/12/20 02:52:30;;;;;;;4.85;2.80;;;;;;;8.99;100.00;101176.63;5008064;28;20056;-78
2022/12/20 02:54:58;;;;;;;4.95;2.75;;;;;;;9.01;100.00;101190.50;5028277;28;20052;-78
2022/12/20 02:57:38;;;;;;;4.82;2.88;;;;;;;9.04;100.00;101184.22;5010646;28;20025;-78
2022/12/20 03:00:03;;;;;;;2.80;2.58;;;;;;;9.05;100.00;101181.50;5024630;28;20037;-81
2022/12/20 03:03:21;;;;;;;3.40;2.45;;;;;;;9.07;100.00;101184.03;5010787;28;20033;-78
2022/12/20 03:05:15;;;;;;;4.47;2.40;;;;;;;9.09;100.00;101176.91;5028426;28;20083;-78
2022/12/20 03:07:41;;;;;;;3.75;2.80;;;;;;;9.09;100.00;101176.91;5011065;28;20021;-82
2022/12/20 03:10:07;;;;;;;3.55;2.47;;;;;;;9.09;100.00;101169.03;5011711;28;20033;-78
2022/12/20 03:12:44;;;;;;;4.32;2.95;;;;;;;9.14;100.00;101182.69;5029592;28;20025;-79
2022/12/20 03:15:10;;;;;;;5.47;2.53;;;;;;;9.19;100.00;101185.88;5008788;28;20482;-78
2022/12/20 03:17:35;;;;;;;4.18;2.45;;;;;;;9.22;100.00;101177.84;5026445;28;20104;-78
2022/12/20 03:20:01;;;;;;;5.03;2.60;;;;;;;9.25;100.00;101180.25;5029706;28;20543;-78
2022/12/20 03:22:27;;;;;;;4.40;2.60;;;;;;;9.28;100.00;101166.94;5028483;28;20492;-78
2022/12/20 03:24:52;;;;;;;4.80;2.42;;;;;;;9.31;100.00;101172.00;5030073;28;20028;-77
2022/12/20 03:27:17;;;;;;;5.22;2.50;;;;;;;9.36;100.00;101169.91;5029438;28;20032;-76
2022/12/20 03:29:44;;;;;;;4.28;2.53;;;;;;;9.38;100.00;101164.56;5028505;28;20022;-77
2022/12/20 03:32:10;;;;;;;4.32;2.50;;;;;;;9.46;100.00;101164.91;5028167;28;20580;-77
2022/12/20 03:34:36;;;;;;;4.93;2.30;;;;;;;9.46;100.00;101169.31;5017930;28;20026;-77
2022/12/20 03:37:01;;;;;;;5.28;2.40;;;;;;;9.51;100.00;101167.25;5028722;28;20025;-77
2022/12/20 03:39:26;;;;;;;4.38;2.38;;;;;;;9.49;100.00;101174.38;5010766;28;20056;-77
2022/12/20 03:41:52;;;;;;;3.65;2.60;;;;;;;9.52;100.00;101176.81;5030120;28;20030;-77
2022/12/20 03:44:17;;;;;;;5.05;2.72;;;;;;;9.51;100.00;101172.50;5009326;28;20028;-77
2022/12/20 03:46:43;;;;;;;4.47;2.50;;;;;;;9.56;100.00;101180.91;5010657;28;20033;-77
2022/12/20 03:49:08;;;;;;;3.00;2.70;;;;;;;9.57;100.00;101172.94;5006406;28;20077;-77
2022/12/20 03:51:33;;;;;;;3.33;2.50;;;;;;;9.61;100.00;101170.97;5017718;28;20051;-77
2022/12/20 03:53:59;;;;;;;4.00;2.35;;;;;;;9.62;100.00;101160.38;5029317;28;20029;-76
2022/12/20 03:56:24;;;;;;;3.95;2.78;;;;;;;9.67;100.00;101167.97;5026813;28;20037;-77
2022/12/20 03:58:49;;;;;;;5.05;2.53;;;;;;;9.71;100.00;101158.94;5009974;28;20116;-77
2022/12/20 04:01:23;;;;;;;4.53;2.53;;;;;;;9.79;100.00;101167.16;5028913;28;20026;-77
2022/12/20 04:03:49;;;;;;;3.10;2.45;;;;;;;9.85;100.00;101164.09;5029279;28;20032;-76
2022/12/20 04:06:16;;;;;;;4.07;2.40;;;;;;;9.92;100.00;101168.00;5004454;28;20026;-77
2022/12/20 04:08:42;;;;;;;4.15;2.70;;;;;;;9.94;100.00;101160.03;5021832;28;20080;-77
2022/12/20 04:11:16;;;;;;;9.57;2.65;;;;;;;9.94;100.00;101171.38;5012732;28;20030;-77
2022/12/20 04:13:46;;;;;;;3.03;2.53;;;;;;;9.95;100.00;101164.34;5012052;28;20057;-78
2022/12/20 04:16:13;;;;;;;4.35;2.20;;;;;;;9.98;100.00;101170.22;5012491;28;20065;-77
2022/12/20 04:18:39;;;;;;;3.90;2.30;;;;;;;10.02;100.00;101161.22;5026222;28;20104;-79
2022/12/20 04:21:06;;;;;;;4.75;2.45;;;;;;;10.02;100.00;101166.47;5030246;28;20104;-76
2022/12/20 04:23:35;;;;;;;4.70;2.30;;;;;;;10.00;100.00;101173.59;5031080;28;20021;-79
2022/12/20 04:26:02;;;;;;;4.43;2.30;;;;;;;10.07;100.00;101153.03;5032621;28;20426;-76
2022/12/20 04:28:28;;;;;;;3.42;2.20;;;;;;;10.11;100.00;101156.28;5015119;28;20103;-76
2022/12/20 04:30:54;;;;;;;4.97;2.40;;;;;;;10.11;100.00;101151.03;5031030;28;20056;-76
2022/12/20 04:33:24;;;;;;;3.67;2.33;;;;;;;10.10;100.00;101149.34;5013606;28;20022;-76
2022/12/20 04:35:50;;;;;;;4.00;2.40;;;;;;;10.14;99.92;101156.09;5033072;28;20022;-76
2022/12/20 04:38:17;;;;;;;4.70;2.38;;;;;;;10.17;99.61;101150.63;5032376;28;20052;-76
2022/12/20 04:40:42;;;;;;;5.63;2.53;;;;;;;10.18;99.34;101150.50;5006038;28;20053;-77
2022/12/20 04:43:08;;;;;;;3.10;2.20;;;;;;;10.20;99.01;101153.03;4995620;28;20718;-76
2022/12/20 04:45:33;;;;;;;4.20;2.33;;;;;;;10.19;99.31;101160.09;5028002;28;20108;-77
2022/12/20 04:47:59;;;;;;;5.38;2.28;;;;;;;10.19;99.30;101149.56;5029854;28;20033;-76
2022/12/20 04:50:32;;;;;;;3.85;2.40;;;;;;;10.25;98.97;101154.44;5031192;28;20425;-77
2022/12/20 04:55:42;;;;;;;5.40;2.30;;;;;;;10.23;99.18;101156.34;5029991;28;20507;-78
2022/12/20 04:58:07;;;;;;;3.30;2.25;;;;;;;10.25;99.44;101153.59;5012383;28;20104;-77
2022/12/20 05:00:33;;;;;;;4.72;2.15;;;;;;;10.23;99.29;101145.81;5009974;28;20026;-76
2022/12/20 05:02:59;;;;;;;2.92;2.13;;;;;;;10.27;98.92;101135.94;5031290;28;20113;-77
2022/12/20 05:05:28;;;;;;;3.17;2.60;;;;;;;10.27;99.51;101134.13;5031328;28;20014;-77
2022/12/20 05:07:54;;;;;;;4.72;2.40;;;;;;;10.28;99.33;101134.97;5029196;28;20261;-77
2022/12/20 05:10:32;;;;;;;4.18;2.10;;;;;;;10.27;99.42;101141.19;5030353;28;20017;-77
2022/12/20 05:12:58;;;;;;;6.53;2.67;;;;;;;10.28;100.00;101132.34;5027142;28;20064;-76
2022/12/20 05:15:23;;;;;;;6.10;2.58;;;;;;;10.25;100.00;101135.19;5012085;28;20053;-77
2022/12/20 05:17:58;;;;;;;3.97;2.53;;;;;;;10.28;100.00;101127.09;5010076;28;20037;-77
2022/12/20 05:20:32;;;;;;;4.28;2.20;;;;;;;10.28;99.85;101117.41;5010982;28;20041;-77
2022/12/20 05:28:30;;;;;;;4.88;2.75;;;;;;;10.27;100.00;101099.09;5010935;28;20446;-77
2022/12/20 05:30:59;;;;;;;7.07;2.40;;;;;;;10.24;100.00;101104.56;5009413;28;20184;-77
2022/12/20 05:33:36;;;;;;;5.45;2.17;;;;;;;10.24;100.00;101109.84;5011023;28;20095;-77
2022/12/20 05:36:04;;;;;;;4.85;2.45;;;;;;;10.25;100.00;101103.63;5008861;28;20030;-77
2022/12/20 05:38:33;;;;;;;4.93;2.45;;;;;;;10.27;100.00;101107.00;5010608;28;20029;-77
2022/12/20 05:40:58;;;;;;;3.75;2.30;;;;;;;10.27;100.00;101099.09;5012161;28;20037;-77
2022/12/20 05:43:24;;;;;;;4.22;2.45;;;;;;;10.22;100.00;101095.97;5001093;28;20034;-77
2022/12/20 05:45:58;;;;;;;4.82;2.38;;;;;;;10.23;100.00;101092.38;5009051;28;20025;-77
2022/12/20 05:48:23;;;;;;;3.42;2.03;;;;;;;10.21;100.00;101089.84;5000416;28;20061;-77
2022/12/20 05:50:49;;;;;;;4.10;1.88;;;;;;;10.21;100.00;101089.00;5008309;28;20030;-76
2022/12/20 05:53:16;;;;;;;8.60;2.25;;;;;;;10.20;100.00;101093.44;4995935;28;20030;-77
2022/12/20 05:55:43;;;;;;;3.35;2.00;;;;;;;10.18;100.00;101082.16;5009392;28;20025;-77
2022/12/20 05:58:12;;;;;;;6.13;2.25;;;;;;;10.19;100.00;101077.72;5010140;28;20029;-77
2022/12/20 06:00:38;;;;;;;3.47;2.00;;;;;;;10.16;99.85;101070.06;5008353;28;20494;-77
2022/12/20 06:03:03;;;;;;;3.17;1.80;;;;;;;10.16;100.00;101075.31;5009688;28;20026;-77
2022/12/20 06:05:28;;;;;;;3.53;2.00;;;;;;;10.19;99.70;101057.53;5009315;28;20053;-77
2022/12/20 06:07:54;;;;;;;5.22;2.00;;;;;;;10.20;99.75;101046.09;5008925;28;20041;-76
2022/12/20 06:10:19;;;;;;;2.60;1.83;;;;;;;10.21;99.22;101028.53;5011632;28;20033;-76
2022/12/20 06:12:44;;;;;;;4.38;2.10;;;;;;;10.21;99.17;101024.13;5010117;28;20034;-76
2022/12/20 06:15:14;;;;;;;5.07;1.98;;;;;;;10.21;99.12;101028.53;5009966;28;20092;-77
2022/12/20 06:17:40;;;;;;;3.33;1.65;;;;;;;10.21;98.85;101032.00;5010146;28;20150;-77
2022/12/20 06:20:08;;;;;;;3.75;1.92;;;;;;;10.17;98.60;101035.75;5009369;28;20033;-78
2022/12/20 06:22:36;;;;;;;5.70;2.20;;;;;;;10.18;98.48;101034.81;5009753;28;20446;-77
2022/12/20 06:25:02;;;;;;;5.22;1.98;;;;;;;10.17;98.03;101034.94;5003933;28;20080;-78
2022/12/20 06:27:27;;;;;;;3.45;1.83;;;;;;;10.17;97.98;101034.94;4988337;28;20039;-77
2022/12/20 06:29:53;;;;;;;2.67;1.92;;;;;;;10.14;97.84;101040.41;5007733;28;20269;-77
2022/12/20 06:32:21;;;;;;;2.78;1.70;;;;;;;10.13;97.12;101046.59;5028910;28;20029;-77
2022/12/20 06:34:46;;;;;;;3.83;1.80;;;;;;;10.12;96.54;101060.69;5012952;28;20389;-77
2022/12/20 06:37:12;;;;;;;4.88;1.75;;;;;;;10.13;96.68;101049.22;5029279;28;20017;-76
2022/12/20 06:39:46;;;;;;;7.28;1.88;;;;;;;10.08;97.47;101048.72;5029360;28;20487;-76
2022/12/20 06:42:18;;;;;;;4.15;1.90;;;;;;;10.08;96.33;101044.28;5023656;28;20108;-78
2022/12/20 06:44:52;;;;;;;3.05;1.75;;;;;;;10.11;96.36;101037.97;5004730;28;20041;-76
2022/12/20 06:47:24;;;;;;;4.32;1.70;;;;;;;10.11;96.01;101043.25;5027712;28;20025;-76
2022/12/20 06:49:49;;;;;;;2.47;1.70;;;;;;;10.12;95.79;101039.66;5028922;28;20025;-76
2022/12/20 06:52:21;;;;;;;2.88;1.58;;;;;;;10.15;95.29;101040.28;5028553;28;20436;-77
2022/12/20 06:54:47;;;;;;;3.72;1.90;;;;;;;10.14;94.92;101035.97;5028688;28;20072;-77
2022/12/20 06:57:12;;;;;;;5.72;1.80;;;;;;;10.18;94.57;101049.75;5010326;28;20493;-77
2022/12/20 06:59:38;;;;;;;3.95;1.85;;;;;;;10.15;94.43;101047.34;5025597;28;20482;-77
2022/12/20 07:02:04;;;;;;;2.78;1.88;;;;;;;10.16;94.76;101038.50;5010403;28;20026;-76
2022/12/20 07:04:36;;;;;;;2.60;1.60;;;;;;;10.19;93.59;101044.38;5012203;28;20474;-75
2022/12/20 07:07:05;;;;;;;2.95;1.70;;;;;;;10.19;93.82;101047.03;5010019;28;20561;-76
2022/12/20 07:09:30;;;;;;;3.53;1.65;;;;;;;10.20;93.71;101053.13;5010462;28;20025;-78
2022/12/20 07:11:56;;;;;;;3.20;1.73;;;;;;;10.18;93.71;101052.38;5029748;28;20056;-78
2022/12/20 07:14:22;;;;;;;3.33;1.80;;;;;;;10.19;93.47;101038.28;5023386;28;20057;-76
2022/12/20 07:16:48;;;;;;;3.28;1.70;;;;;;;10.16;93.81;101049.84;4993104;28;20483;-76
2022/12/20 07:19:20;;;;;;;3.50;1.75;;;;;;;10.21;93.06;101054.84;5013364;28;20033;-76
2022/12/20 07:21:55;;;;;;;3.38;1.60;;;;;;;10.24;92.60;101052.81;5028844;28;20832;-78
2022/12/20 07:24:24;;;;;;;3.47;1.90;;;;;;;10.23;93.03;101045.03;5029187;28;20029;-78
2022/12/20 07:26:55;;;;;;;4.45;2.08;;;;;;;10.21;93.11;101042.53;5012481;28;20032;-77
2022/12/20 07:29:42;;;;;;;3.65;1.77;;;;;;;10.22;92.91;101051.25;5011562;28;20122;-76
2022/12/20 07:32:07;;;;;;;4.45;2.08;;;;;;;10.25;92.79;101053.66;5020840;28;20050;-76
2022/12/20 07:34:38;;;;;;;4.80;1.73;;;;;;;10.26;92.46;101060.59;5009860;28;20029;-77
2022/12/20 07:37:07;;;;;;;2.33;1.67;;;;;;;10.25;92.71;101054.50;5023770;28;20104;-76
2022/12/20 07:39:33;;;;;;;3.63;1.70;;;;;;;10.24;92.68;101060.72;5029514;28;20018;-76
2022/12/20 07:42:08;;;;;;;6.15;1.80;;;;;;;10.28;91.79;101063.97;5005579;28;20025;-77
2022/12/20 07:44:44;;;;;;;2.95;1.90;;;;;;;10.27;91.80;101060.50;5014897;28;20025;-77
2022/12/20 07:47:24;;;;;;;3.50;1.80;;;;;;;10.29;91.95;101068.28;5012691;28;20024;-78
2022/12/20 07:49:56;;;;;;;1.92;1.50;;;;;;;10.30;91.84;101067.34;5014353;28;20030;-78
2022/12/20 07:52:25;;;;;;;4.25;1.90;;;;;;;10.31;92.09;101066.38;5031444;28;20028;-78
2022/12/20 07:54:58;;;;;;;2.13;1.52;;;;;;;10.32;91.38;101074.16;5025727;28;20164;-77
2022/12/20 07:57:51;;;;;;;3.03;1.60;;;;;;;10.36;92.66;101085.31;5028218;28;20565;-77
2022/12/20 08:00:17;;;;;;;4.20;1.63;;;;;;;10.33;92.59;101072.38;5025088;28;20566;-77
2022/12/20 08:03:19;;;;;;;2.28;1.52;;;;;;;10.34;94.55;101079.31;5032303;28;20029;-77
2022/12/20 08:05:48;;;;;;;5.38;1.90;;;;;;;10.24;95.35;101079.13;4994619;28;20042;-78
2022/12/20 08:08:14;;;;;;;2.83;1.83;;;;;;;10.18;96.61;101076.88;5030607;28;20022;-78
2022/12/20 08:10:40;;;;;;;2.65;2.13;;;;;;;10.15;97.09;101073.63;5031245;28;20102;-78
2022/12/20 08:13:06;;;;;;;3.95;2.00;;;;;;;10.13;97.20;101070.25;5012520;28;20066;-78
2022/12/20 08:15:33;;;;;;;4.85;1.70;;;;;;;10.08;97.91;101067.13;5032024;28;20044;-78
2022/12/20 08:17:59;;;;;;;3.75;1.75;;;;;;;10.12;97.09;101073.84;5011816;28;20465;-78
2022/12/20 08:20:25;;;;;;;4.63;1.88;;;;;;;10.08;98.46;101067.97;5029676;28;20025;-78
2022/12/20 08:22:50;;;;;;;4.18;1.73;;;;;;;10.08;99.34;101075.00;5031845;28;20017;-77
2022/12/20 08:25:15;;;;;;;4.03;1.77;;;;;;;10.02;99.59;101069.22;5013406;28;20343;-78
2022/12/20 08:27:41;;;;;;;5.05;1.88;;;;;;;10.01;99.98;101067.53;5031486;28;20072;-78
2022/12/20 08:30:10;;;;;;;4.07;1.67;;;;;;;9.97;100.00;101071.28;5013796;28;20029;-78
2022/12/20 08:32:38;;;;;;;4.53;1.83;;;;;;;9.93;100.00;101068.97;5032084;28;20033;-78
2022/12/20 08:35:05;;;;;;;5.90;1.90;;;;;;;9.92;100.00;101078.66;5031743;28;20018;-78
2022/12/20 08:37:30;;;;;;;3.47;1.60;;;;;;;9.88;100.00;101071.91;5032379;28;20021;-78
2022/12/20 08:39:56;;;;;;;4.10;1.92;;;;;;;9.83;100.00;101068.75;5032105;28;20036;-78
2022/12/20 08:42:21;;;;;;;4.57;2.22;;;;;;;9.82;100.00;101066.25;5032335;28;20423;-78
2022/12/20 08:44:47;;;;;;;6.10;2.22;;;;;;;9.79;100.00;101061.19;5022830;28;20383;-78
2022/12/20 08:47:12;;;;;;;6.38;2.15;;;;;;;9.78;100.00;101064.75;5020759;28;20037;-78
2022/12/20 08:49:38;;;;;;;3.20;2.10;;;;;;;9.74;100.00;101056.25;5013409;28;20395;-78
2022/12/20 08:52:03;;;;;;;4.85;2.53;;;;;;;9.71;100.00;101054.66;5014366;28;20119;-78
2022/12/20 08:54:28;;;;;;;4.80;2.30;;;;;;;9.67;100.00;101049.72;5013531;28;20021;-77
2022/12/20 08:56:55;;;;;;;5.35;2.63;;;;;;;9.60;100.00;101059.78;5032466;28;20029;-77
2022/12/20 08:59:20;;;;;;;3.35;2.40;;;;;;;9.54;100.00;101052.31;5031927;28;20062;-77
2022/12/20 09:01:46;;;;;;;4.40;2.55;;;;;;;9.52;100.00;101048.09;5022596;28;20104;-77
2022/12/20 09:04:11;;;;;;;4.20;2.35;;;;;;;9.48;100.00;101050.09;5030988;28;20053;-77
2022/12/20 09:06:37;;;;;;;6.75;2.50;;;;;;;9.47;100.00;101052.81;5031244;28;20474;-77
2022/12/20 09:09:04;;;;;;;4.93;2.83;;;;;;;9.42;100.00;101042.63;5027147;28;20034;-77
2022/12/20 09:11:29;;;;;;;4.18;2.70;;;;;;;9.42;100.00;101043.47;5027218;28;20018;-77
2022/12/20 09:13:57;;;;;;;7.78;2.63;;;;;;;9.40;100.00;101040.09;5032338;28;20079;-76
2022/12/20 09:16:25;;;;;;;4.05;2.65;;;;;;;9.40;100.00;101040.09;5012790;28;20075;-77
2022/12/20 09:18:53;;;;;;;4.65;2.78;;;;;;;9.41;100.00;101036.53;5031316;28;20030;-77
2022/12/20 09:21:21;;;;;;;5.18;2.80;;;;;;;9.42;100.00;101043.47;5012622;28;20693;-77
2022/12/20 09:23:50;;;;;;;6.25;2.88;;;;;;;9.45;100.00;101042.41;5031790;28;20026;-77
2022/12/20 09:26:17;;;;;;;7.60;3.15;;;;;;;9.47;100.00;101039.69;5012114;28;20482;-77
2022/12/20 09:28:43;;;;;;;7.43;3.22;;;;;;;9.50;100.00;101045.56;5029238;28;20593;-77
2022/12/20 09:31:17;;;;;;;5.20;2.80;;;;;;;9.53;100.00;101045.38;5030995;28;20132;-78
2022/12/20 09:33:43;;;;;;;4.20;3.05;;;;;;;9.56;100.00;101045.16;5030762;28;20152;-78
2022/12/20 09:36:21;;;;;;;4.05;2.90;;;;;;;9.59;100.00;101049.38;5012497;28;20124;-78
2022/12/20 09:38:47;;;;;;;5.30;2.90;;;;;;;9.62;100.00;101041.31;5031794;28;20492;-77
2022/12/20 09:41:27;;;;;;;4.43;2.70;;;;;;;9.65;100.00;101039.31;5031027;28;20025;-75
2022/12/20 09:44:00;;;;;;;4.38;2.70;;;;;;;9.68;100.00;101039.13;5030652;28;20029;-78
2022/12/20 09:46:26;;;;;;;7.80;2.90;;;;;;;9.70;100.00;101036.38;5030953;28;20025;-76
2022/12/20 09:49:05;;;;;;;5.10;2.50;;;;;;;9.72;100.00;101050.25;5030680;28;20078;-79
2022/12/20 09:51:47;;;;;;;4.20;2.58;;;;;;;9.68;100.00;101049.63;5021775;28;20037;-79
2022/12/20 09:54:31;;;;;;;5.32;2.95;;;;;;;9.69;100.00;101043.44;5029125;28;20037;-79
2022/12/20 09:57:09;;;;;;;5.82;2.60;;;;;;;9.72;100.00;101034.50;4983458;28;20030;-79
2022/12/20 09:59:40;;;;;;;3.75;2.53;;;;;;;9.71;100.00;101045.94;4995859;28;20363;-79
2022/12/20 10:02:11;;;;;;;5.75;2.90;;;;;;;9.73;100.00;101036.16;5031296;28;20037;-77
2022/12/20 10:04:41;;;;;;;5.72;2.70;;;;;;;9.74;100.00;101040.47;5028740;28;20025;-76
2022/12/20 10:07:21;;;;;;;2.88;2.30;;;;;;;9.77;100.00;101037.66;5011594;28;20082;-76
2022/12/20 10:10:20;;;;;;;4.75;2.80;;;;;;;9.82;100.00;101042.59;5012692;28;20037;-76
2022/12/20 10:12:57;;;;;;;5.43;2.50;;;;;;;9.86;100.00;101033.53;5022553;28;20044;-76
2022/12/20 10:15:37;;;;;;;4.07;2.20;;;;;;;9.91;100.00;101037.53;5028143;28;20037;-76
2022/12/20 10:18:05;;;;;;;4.53;2.30;;;;;;;9.94;100.00;101034.69;4997983;28;20030;-76
2022/12/20 10:20:50;;;;;;;4.78;2.50;;;;;;;10.01;100.00;101036.00;5028772;28;20040;-76
2022/12/20 10:23:38;;;;;;;5.50;2.60;;;;;;;10.08;100.00;101043.44;5027266;28;20033;-79
2022/12/20 10:26:09;;;;;;;5.07;2.58;;;;;;;10.12;100.00;101042.28;5021847;28;20052;-76
2022/12/20 10:28:39;;;;;;;5.70;2.80;;;;;;;10.16;100.00;101039.34;5008354;28;20486;-76
2022/12/20 10:31:12;;;;;;;4.57;2.45;;;;;;;10.19;100.00;101048.81;5026343;28;20107;-76
2022/12/20 10:33:39;;;;;;;5.22;2.42;;;;;;;10.19;100.00;101038.28;5030007;28;20834;-76
2022/12/20 10:36:27;;;;;;;4.13;2.58;;;;;;;10.18;100.00;101036.59;5029012;28;20048;-78
2022/12/20 10:38:56;;;;;;;3.45;2.67;;;;;;;10.14;100.00;101030.72;5029488;28;20025;-76
2022/12/20 10:41:29;;;;;;;8.43;3.17;;;;;;;10.10;100.00;101031.88;5029064;28;20096;-78
2022/12/20 10:43:59;;;;;;;4.15;2.67;;;;;;;10.06;100.00;101027.78;5015502;28;20120;-79
2022/12/20 10:46:39;;;;;;;5.80;3.30;;;;;;;10.03;100.00;101031.47;5024573;28;20009;-77
2022/12/20 10:49:31;;;;;;;6.20;3.20;;;;;;;10.00;100.00;101012.41;5030055;28;20029;-79
2022/12/20 10:51:59;;;;;;;4.82;3.60;;;;;;;9.93;100.00;101012.00;4995568;28;20040;-78
2022/12/20 10:54:37;;;;;;;6.10;3.65;;;;;;;9.93;100.00;101016.41;5026028;28;20654;-79
2022/12/20 10:57:19;;;;;;;7.78;4.32;;;;;;;9.92;100.00;101019.97;5006939;28;20021;-78
2022/12/20 10:59:50;;;;;;;;;;;;;;;9.97;100.00;101013.47;5020661;28;20056;-78
2022/12/20 11:02:25;;;;;;;6.45;3.70;;;;;;;9.90;100.00;101006.09;5010862;28;19913;-77
2022/12/20 11:05:17;;;;;;;5.95;3.30;;;;;;;9.86;100.00;101005.47;5030162;28;20482;-78
2022/12/20 11:07:58;;;;;;;6.82;3.65;;;;;;;9.85;100.00;101009.06;5010149;28;20444;-75
2022/12/20 11:10:26;;;;;;;7.07;3.60;;;;;;;9.82;100.00;101009.25;5009574;28;20512;-78
2022/12/20 11:12:57;;;;;;;7.15;3.70;;;;;;;9.82;100.00;101009.25;5025182;28;20040;-77
2022/12/20 11:15:26;;;;;;;5.78;3.50;;;;;;;9.81;100.00;100999.69;5010276;28;20059;-77
2022/12/20 11:17:58;;;;;;;6.57;3.60;;;;;;;9.81;100.00;101007.59;5031440;28;20056;-77
2022/12/20 11:20:29;;;;;;;7.45;4.00;;;;;;;9.80;100.00;100994.56;5032447;28;20025;-77
2022/12/20 11:22:55;;;;;;;7.55;3.90;;;;;;;9.80;100.00;100995.41;5033352;28;20087;-77
2022/12/20 11:25:44;;;;;;;5.85;3.17;;;;;;;9.78;100.00;101002.53;5032287;28;20026;-77
2022/12/20 11:28:46;;;;;;;7.03;4.10;;;;;;;9.78;100.00;100999.91;5014588;28;20026;-75
2022/12/20 11:31:26;;;;;;;8.38;3.40;;;;;;;9.77;100.00;101000.03;5032821;28;20057;-76
2022/12/20 11:34:29;;;;;;;7.72;3.75;;;;;;;9.80;100.00;101000.66;5033037;28;20033;-77
2022/12/20 11:37:17;;;;;;;5.55;3.75;;;;;;;9.79;100.00;100993.72;5032516;28;20021;-76
2022/12/20 11:40:20;;;;;;;8.38;3.67;;;;;;;9.81;100.00;100986.56;5033007;28;20029;-76
2022/12/20 11:42:57;;;;;;;5.55;3.85;;;;;;;9.76;100.00;100980.78;5032868;28;20393;-76
2022/12/20 11:45:39;;;;;;;6.78;4.00;;;;;;;9.74;100.00;100974.78;5027949;28;20053;-76
2022/12/20 11:48:58;;;;;;;6.43;4.05;;;;;;;9.75;100.00;100976.47;5014752;28;20026;-77
2022/12/20 11:51:28;;;;;;;6.55;4.63;;;;;;;9.71;100.00;100980.25;5024095;28;20093;-77